sensor_id;sensor_type;location;lat;lon;timestamp;pressure;altitude;pressure_sealevel;temperature;humidity
32492;BME280;20605;49.742;18.802;2023-02-12T00:00:36;99056.18;;;3.78;100.00
32492;BME280;20605;49.742;18.802;2023-02-12T00:03:02;99055.19;;;3.81;100.00
32492;BME280;20605;49.742;18.802;2023-02-12T00:05:28;99055.92;;;3.84;100.00
32492;BME280;20605;49.742;18.802;2023-02-12T00:07:54;99056.52;;;3.89;100.00
32492;BME280;20605;49.742;18.802;2023-02-12T00:10:21;99058.27;;;3.93;100.00
32492;BME280;20605;49.742;18.802;2023-02-12T00:12:47;99062.23;;;3.94;100.00
32492;BME280;20605;49.742;18.802;2023-02-12T00:15:12;99063.98;;;3.96;100.00
32492;BME280;20605;49.742;18.802;2023-02-12T00:17:38;99058.84;;;3.98;100.00
32492;BME280;20605;49.742;18.802;2023-02-12T00:20:04;99063.84;;;3.99;100.00
32492;BME280;20605;49.742;18.802;2023-02-12T00:22:30;99069.23;;;3.89;100.00
32492;BME280;20605;49.742;18.802;2023-02-12T00:24:56;99067.66;;;3.76;100.00
32492;BME280;20605;49.742;18.802;2023-02-12T00:27:23;99068.58;;;3.69;100.00
32492;BME280;20605;49.742;18.802;2023-02-12T00:29:48;99069.67;;;3.74;100.00
32492;BME280;20605;49.742;18.802;2023-02-12T00:32:14;99074.25;;;3.80;100.00
32492;BME280;20605;49.742;18.802;2023-02-12T00:34:47;99074.98;;;3.83;100.00
32492;BME280;20605;49.742;18.802;2023-02-12T00:37:14;99078.15;;;3.77;100.00
32492;BME280;20605;49.742;18.802;2023-02-12T00:39:40;99077.14;;;3.67;100.00
32492;BME280;20605;49.742;18.802;2023-02-12T00:42:07;99076.84;;;3.59;100.00
32492;BME280;20605;49.742;18.802;2023-02-12T00:44:33;99079.38;;;3.57;100.00
32492;BME280;20605;49.742;18.802;2023-02-12T00:47:01;99081.47;;;3.59;100.00
32492;BME280;20605;49.742;18.802;2023-02-12T00:49:29;99081.38;;;3.63;100.00
32492;BME280;20605;49.742;18.802;2023-02-12T00:51:59;99081.63;;;3.69;100.00
32492;BME280;20605;49.742;18.802;2023-02-12T00:54:26;99080.69;;;3.74;100.00
32492;BME280;20605;49.742;18.802;2023-02-12T00:56:52;99084.10;;;3.73;100.00
32492;BME280;20605;49.742;18.802;2023-02-12T00:59:21;99080.67;;;3.74;100.00
32492;BME280;20605;49.742;18.802;2023-02-12T01:01:47;99080.55;;;3.77;100.00
32492;BME280;20605;49.742;18.802;2023-02-12T01:04:14;99081.26;;;3.78;100.00
32492;BME280;20605;49.742;18.802;2023-02-12T01:06:40;99076.74;;;3.75;100.00
32492;BME280;20605;49.742;18.802;2023-02-12T01:09:07;99075.52;;;3.74;100.00
32492;BME280;20605;49.742;18.802;2023-02-12T01:11:33;99079.42;;;3.71;100.00
32492;BME280;20605;49.742;18.802;2023-02-12T01:13:59;99078.05;;;3.70;100.00
32492;BME280;20605;49.742;18.802;2023-02-12T01:16:25;99081.02;;;3.74;100.00
32492;BME280;20605;49.742;18.802;2023-02-12T01:18:53;99083.14;;;3.77;100.00
32492;BME280;20605;49.742;18.802;2023-02-12T01:21:21;99083.55;;;3.81;100.00
32492;BME280;20605;49.742;18.802;2023-02-12T01:23:49;99089.97;;;3.85;100.00
32492;BME280;20605;49.742;18.802;2023-02-12T01:26:16;99090.27;;;3.83;100.00
32492;BME280;20605;49.742;18.802;2023-02-12T01:28:44;99091.39;;;3.78;100.00
32492;BME280;20605;49.742;18.802;2023-02-12T01:31:15;99090.61;;;3.72;100.00
32492;BME280;20605;49.742;18.802;2023-02-12T01:33:42;99093.63;;;3.68;100.00
32492;BME280;20605;49.742;18.802;2023-02-12T01:36:09;99095.30;;;3.65;100.00
32492;BME280;20605;49.742;18.802;2023-02-12T01:38:35;99095.15;;;3.66;100.00
32492;BME280;20605;49.742;18.802;2023-02-12T01:41:08;99093.42;;;3.66;100.00
32492;BME280;20605;49.742;18.802;2023-02-12T01:43:35;99096.89;;;3.67;100.00
32492;BME280;20605;49.742;18.802;2023-02-12T01:46:03;99099.67;;;3.69;100.00
32492;BME280;20605;49.742;18.802;2023-02-12T01:48:37;99101.31;;;3.75;100.00
32492;BME280;20605;49.742;18.802;2023-02-12T01:51:05;99104.20;;;3.84;100.00
32492;BME280;20605;49.742;18.802;2023-02-12T01:53:36;99109.65;;;3.93;100.00
32492;BME280;20605;49.742;18.802;2023-02-12T01:56:03;99110.08;;;3.99;100.00
32492;BME280;20605;49.742;18.802;2023-02-12T01:58:34;99115.48;;;4.03;100.00
32492;BME280;20605;49.742;18.802;2023-02-12T02:01:04;99117.06;;;4.06;100.00
32492;BME280;20605;49.742;18.802;2023-02-12T02:03:32;99113.30;;;4.07;100.00
32492;BME280;20605;49.742;18.802;2023-02-12T02:06:03;99116.11;;;4.12;100.00
32492;BME280;20605;49.742;18.802;2023-02-12T02:08:33;99114.45;;;4.15;100.00
32492;BME280;20605;49.742;18.802;2023-02-12T02:10:58;99118.70;;;4.11;100.00
32492;BME280;20605;49.742;18.802;2023-02-12T02:13:25;99122.61;;;4.09;100.00
32492;BME280;20605;49.742;18.802;2023-02-12T02:16:25;99124.52;;;4.10;100.00
32492;BME280;20605;49.742;18.802;2023-02-12T02:19:02;99132.55;;;4.08;100.00
32492;BME280;20605;49.742;18.802;2023-02-12T02:22:12;99134.08;;;4.06;100.00
32492;BME280;20605;49.742;18.802;2023-02-12T02:25:14;99133.09;;;4.09;100.00
32492;BME280;20605;49.742;18.802;2023-02-12T02:27:56;99143.95;;;4.11;100.00
32492;BME280;20605;49.742;18.802;2023-02-12T02:30:35;99142.30;;;4.15;100.00
32492;BME280;20605;49.742;18.802;2023-02-12T02:33:21;99147.66;;;4.17;100.00
32492;BME280;20605;49.742;18.802;2023-02-12T02:38:54;99151.23;;;4.16;100.00
32492;BME280;20605;49.742;18.802;2023-02-12T02:41:29;99149.18;;;4.16;100.00
32492;BME280;20605;49.742;18.802;2023-02-12T02:43:57;99150.38;;;4.15;100.00
32492;BME280;20605;49.742;18.802;2023-02-12T02:46:34;99152.94;;;4.14;100.00
32492;BME280;20605;49.742;18.802;2023-02-12T02:49:04;99148.31;;;4.16;100.00
32492;BME280;20605;49.742;18.802;2023-02-12T02:51:42;99149.77;;;4.20;100.00
32492;BME280;20605;49.742;18.802;2023-02-12T02:54:29;99154.98;;;4.23;100.00
32492;BME280;20605;49.742;18.802;2023-02-12T02:57:04;99157.42;;;4.26;100.00
32492;BME280;20605;49.742;18.802;2023-02-12T02:59:36;99163.28;;;4.28;100.00
32492;BME280;20605;49.742;18.802;2023-02-12T03:02:19;99166.02;;;4.25;100.00
32492;BME280;20605;49.742;18.802;2023-02-12T03:04:50;99169.05;;;4.22;100.00
32492;BME280;20605;49.742;18.802;2023-02-12T03:07:25;99166.13;;;4.22;100.00
32492;BME280;20605;49.742;18.802;2023-02-12T03:10:04;99165.46;;;4.23;100.00
32492;BME280;20605;49.742;18.802;2023-02-12T03:12:37;99173.52;;;4.22;100.00
32492;BME280;20605;49.742;18.802;2023-02-12T03:15:20;99177.51;;;4.24;100.00
32492;BME280;20605;49.742;18.802;2023-02-12T03:17:50;99180.13;;;4.27;100.00
32492;BME280;20605;49.742;18.802;2023-02-12T03:20:57;99186.27;;;4.24;100.00
32492;BME280;20605;49.742;18.802;2023-02-12T03:23:29;99188.16;;;4.23;100.00
32492;BME280;20605;49.742;18.802;2023-02-12T03:26:08;99189.39;;;4.25;100.00
32492;BME280;20605;49.742;18.802;2023-02-12T03:28:37;99188.38;;;4.26;100.00
32492;BME280;20605;49.742;18.802;2023-02-12T03:33:47;99195.42;;;4.27;100.00
32492;BME280;20605;49.742;18.802;2023-02-12T03:38:54;99201.67;;;4.31;100.00
32492;BME280;20605;49.742;18.802;2023-02-12T03:41:39;99213.89;;;4.32;100.00
32492;BME280;20605;49.742;18.802;2023-02-12T03:49:28;99222.85;;;4.32;100.00
32492;BME280;20605;49.742;18.802;2023-02-12T03:51:56;99223.48;;;4.28;100.00
32492;BME280;20605;49.742;18.802;2023-02-12T03:54:23;99229.06;;;4.23;100.00
32492;BME280;20605;49.742;18.802;2023-02-12T03:59:22;99245.35;;;4.20;100.00
32492;BME280;20605;49.742;18.802;2023-02-12T04:01:51;99252.71;;;4.18;100.00
32492;BME280;20605;49.742;18.802;2023-02-12T04:04:17;99256.50;;;4.18;100.00
32492;BME280;20605;49.742;18.802;2023-02-12T04:06:45;99257.20;;;4.19;100.00
32492;BME280;20605;49.742;18.802;2023-02-12T04:09:12;99260.45;;;4.18;100.00
32492;BME280;20605;49.742;18.802;2023-02-12T04:14:52;99259.05;;;4.16;100.00
32492;BME280;20605;49.742;18.802;2023-02-12T04:20:21;99265.20;;;4.14;100.00
32492;BME280;20605;49.742;18.802;2023-02-12T04:25:52;99268.70;;;4.19;100.00
32492;BME280;20605;49.742;18.802;2023-02-12T04:28:46;99266.69;;;4.21;100.00
32492;BME280;20605;49.742;18.802;2023-02-12T04:31:23;99275.65;;;4.22;100.00
32492;BME280;20605;49.742;18.802;2023-02-12T04:33:59;99282.85;;;4.22;100.00
32492;BME280;20605;49.742;18.802;2023-02-12T04:36:33;99280.69;;;4.26;100.00
32492;BME280;20605;49.742;18.802;2023-02-12T04:39:09;99283.11;;;4.27;100.00
32492;BME280;20605;49.742;18.802;2023-02-12T04:41:38;99285.34;;;4.26;100.00
32492;BME280;20605;49.742;18.802;2023-02-12T04:44:18;99289.79;;;4.25;100.00
32492;BME280;20605;49.742;18.802;2023-02-12T04:46:46;99290.68;;;4.27;100.00
32492;BME280;20605;49.742;18.802;2023-02-12T04:49:18;99290.90;;;4.30;100.00
32492;BME280;20605;49.742;18.802;2023-02-12T04:51:44;99294.68;;;4.30;100.00
32492;BME280;20605;49.742;18.802;2023-02-12T04:54:12;99299.33;;;4.29;100.00
32492;BME280;20605;49.742;18.802;2023-02-12T04:56:38;99294.15;;;4.29;100.00
32492;BME280;20605;49.742;18.802;2023-02-12T04:59:04;99297.39;;;4.27;100.00
32492;BME280;20605;49.742;18.802;2023-02-12T05:01:32;99296.11;;;4.23;100.00
32492;BME280;20605;49.742;18.802;2023-02-12T05:04:00;99298.93;;;4.17;100.00
32492;BME280;20605;49.742;18.802;2023-02-12T05:06:26;99309.98;;;4.11;100.00
32492;BME280;20605;49.742;18.802;2023-02-12T05:08:52;99320.51;;;4.03;100.00
32492;BME280;20605;49.742;18.802;2023-02-12T05:11:18;99322.10;;;3.96;100.00
32492;BME280;20605;49.742;18.802;2023-02-12T05:13:48;99323.57;;;3.91;100.00
32492;BME280;20605;49.742;18.802;2023-02-12T05:16:14;99331.28;;;3.89;100.00
32492;BME280;20605;49.742;18.802;2023-02-12T05:18:42;99334.54;;;3.89;100.00
32492;BME280;20605;49.742;18.802;2023-02-12T05:21:07;99338.79;;;3.87;100.00
32492;BME280;20605;49.742;18.802;2023-02-12T05:23:35;99344.42;;;3.85;100.00
32492;BME280;20605;49.742;18.802;2023-02-12T05:26:04;99353.33;;;3.83;100.00
32492;BME280;20605;49.742;18.802;2023-02-12T05:28:30;99357.46;;;3.83;100.00
32492;BME280;20605;49.742;18.802;2023-02-12T05:31:01;99363.14;;;3.84;100.00
32492;BME280;20605;49.742;18.802;2023-02-12T05:33:28;99370.20;;;3.85;100.00
32492;BME280;20605;49.742;18.802;2023-02-12T05:35:53;99365.64;;;3.90;100.00
32492;BME280;20605;49.742;18.802;2023-02-12T05:38:20;99371.76;;;3.96;100.00
32492;BME280;20605;49.742;18.802;2023-02-12T05:40:47;99376.14;;;4.01;100.00
32492;BME280;20605;49.742;18.802;2023-02-12T05:43:13;99379.19;;;4.07;100.00
32492;BME280;20605;49.742;18.802;2023-02-12T05:45:39;99379.13;;;4.12;100.00
32492;BME280;20605;49.742;18.802;2023-02-12T05:48:06;99379.02;;;4.15;100.00
32492;BME280;20605;49.742;18.802;2023-02-12T05:50:32;99384.20;;;4.17;100.00
32492;BME280;20605;49.742;18.802;2023-02-12T05:53:00;99386.11;;;4.18;100.00
32492;BME280;20605;49.742;18.802;2023-02-12T05:55:27;99395.58;;;4.18;100.00
32492;BME280;20605;49.742;18.802;2023-02-12T05:57:53;99401.41;;;4.17;100.00
32492;BME280;20605;49.742;18.802;2023-02-12T06:00:19;99404.66;;;4.17;100.00
32492;BME280;20605;49.742;18.802;2023-02-12T06:02:45;99403.30;;;4.18;100.00
32492;BME280;20605;49.742;18.802;2023-02-12T06:05:11;99403.19;;;4.21;100.00
32492;BME280;20605;49.742;18.802;2023-02-12T06:07:37;99405.94;;;4.21;100.00
32492;BME280;20605;49.742;18.802;2023-02-12T06:10:03;99403.88;;;4.21;100.00
32492;BME280;20605;49.742;18.802;2023-02-12T06:12:28;99406.58;;;4.18;100.00
32492;BME280;20605;49.742;18.802;2023-02-12T06:14:54;99407.11;;;4.10;100.00
32492;BME280;20605;49.742;18.802;2023-02-12T06:17:20;99412.29;;;4.03;100.00
32492;BME280;20605;49.742;18.802;2023-02-12T06:19:46;99416.77;;;4.03;100.00
32492;BME280;20605;49.742;18.802;2023-02-12T06:22:12;99423.00;;;4.06;100.00
32492;BME280;20605;49.742;18.802;2023-02-12T06:24:37;99431.80;;;4.07;100.00
32492;BME280;20605;49.742;18.802;2023-02-12T06:27:04;99439.46;;;4.04;100.00
32492;BME280;20605;49.742;18.802;2023-02-12T06:29:29;99442.22;;;4.04;100.00
32492;BME280;20605;49.742;18.802;2023-02-12T06:31:55;99446.64;;;4.01;100.00
32492;BME280;20605;49.742;18.802;2023-02-12T06:34:21;99446.61;;;4.01;100.00
32492;BME280;20605;49.742;18.802;2023-02-12T06:36:47;99451.82;;;4.03;100.00
32492;BME280;20605;49.742;18.802;2023-02-12T06:39:14;99452.73;;;4.06;100.00
32492;BME280;20605;49.742;18.802;2023-02-12T06:41:41;99455.75;;;4.10;100.00
32492;BME280;20605;49.742;18.802;2023-02-12T06:44:11;99451.02;;;4.14;100.00
32492;BME280;20605;49.742;18.802;2023-02-12T06:46:37;99452.31;;;4.19;100.00
32492;BME280;20605;49.742;18.802;2023-02-12T06:49:03;99455.15;;;4.22;100.00
32492;BME280;20605;49.742;18.802;2023-02-12T06:51:29;99463.30;;;4.26;100.00
32492;BME280;20605;49.742;18.802;2023-02-12T06:53:56;99461.43;;;4.27;100.00
32492;BME280;20605;49.742;18.802;2023-02-12T06:56:24;99460.08;;;4.28;100.00
32492;BME280;20605;49.742;18.802;2023-02-12T06:58:55;99460.16;;;4.33;100.00
32492;BME280;20605;49.742;18.802;2023-02-12T07:01:24;99464.16;;;4.35;100.00
32492;BME280;20605;49.742;18.802;2023-02-12T07:03:54;99465.09;;;4.39;100.00
32492;BME280;20605;49.742;18.802;2023-02-12T07:06:21;99464.67;;;4.43;100.00
32492;BME280;20605;49.742;18.802;2023-02-12T07:08:47;99471.64;;;4.48;100.00
32492;BME280;20605;49.742;18.802;2023-02-12T07:11:14;99480.45;;;4.50;100.00
32492;BME280;20605;49.742;18.802;2023-02-12T07:13:41;99483.58;;;4.51;100.00
32492;BME280;20605;49.742;18.802;2023-02-12T07:16:13;99484.52;;;4.55;100.00
32492;BME280;20605;49.742;18.802;2023-02-12T07:18:39;99490.31;;;4.62;100.00
32492;BME280;20605;49.742;18.802;2023-02-12T07:21:07;99489.56;;;4.68;100.00
32492;BME280;20605;49.742;18.802;2023-02-12T07:23:34;99490.44;;;4.69;100.00
32492;BME280;20605;49.742;18.802;2023-02-12T07:26:04;99490.61;;;4.68;100.00
32492;BME280;20605;49.742;18.802;2023-02-12T07:28:32;99494.55;;;4.67;100.00
32492;BME280;20605;49.742;18.802;2023-02-12T07:31:10;99501.27;;;4.68;100.00
32492;BME280;20605;49.742;18.802;2023-02-12T07:33:38;99503.35;;;4.69;100.00
32492;BME280;20605;49.742;18.802;2023-02-12T07:36:06;99503.38;;;4.71;100.00
32492;BME280;20605;49.742;18.802;2023-02-12T07:38:32;99504.77;;;4.71;100.00
32492;BME280;20605;49.742;18.802;2023-02-12T07:41:28;99510.66;;;4.73;100.00
32492;BME280;20605;49.742;18.802;2023-02-12T07:43:59;99509.64;;;4.74;100.00
32492;BME280;20605;49.742;18.802;2023-02-12T07:46:31;99515.73;;;4.77;100.00
32492;BME280;20605;49.742;18.802;2023-02-12T07:48:59;99521.13;;;4.80;100.00
32492;BME280;20605;49.742;18.802;2023-02-12T07:51:27;99520.09;;;4.80;100.00
32492;BME280;20605;49.742;18.802;2023-02-12T07:53:53;99520.07;;;4.79;100.00
32492;BME280;20605;49.742;18.802;2023-02-12T07:56:21;99524.93;;;4.81;100.00
32492;BME280;20605;49.742;18.802;2023-02-12T07:58:49;99531.38;;;4.85;100.00
32492;BME280;20605;49.742;18.802;2023-02-12T08:01:28;99532.56;;;4.94;100.00
32492;BME280;20605;49.742;18.802;2023-02-12T08:04:09;99536.87;;;5.03;100.00
32492;BME280;20605;49.742;18.802;2023-02-12T08:06:38;99542.86;;;5.11;100.00
32492;BME280;20605;49.742;18.802;2023-02-12T08:09:07;99540.37;;;5.16;100.00
32492;BME280;20605;49.742;18.802;2023-02-12T08:11:35;99536.67;;;5.23;100.00
32492;BME280;20605;49.742;18.802;2023-02-12T08:14:02;99533.81;;;5.37;100.00
32492;BME280;20605;49.742;18.802;2023-02-12T08:16:29;99535.43;;;5.63;100.00
32492;BME280;20605;49.742;18.802;2023-02-12T08:18:56;99531.61;;;5.82;100.00
32492;BME280;20605;49.742;18.802;2023-02-12T08:21:25;99534.50;;;6.02;100.00
32492;BME280;20605;49.742;18.802;2023-02-12T08:23:57;99536.87;;;6.23;100.00
32492;BME280;20605;49.742;18.802;2023-02-12T08:26:31;99538.98;;;6.38;100.00
32492;BME280;20605;49.742;18.802;2023-02-12T08:31:33;99548.38;;;6.32;100.00
32492;BME280;20605;49.742;18.802;2023-02-12T08:34:00;99552.43;;;6.26;100.00
32492;BME280;20605;49.742;18.802;2023-02-12T08:36:29;99552.70;;;6.20;100.00
32492;BME280;20605;49.742;18.802;2023-02-12T08:38:58;99557.81;;;6.15;100.00
32492;BME280;20605;49.742;18.802;2023-02-12T08:41:27;99560.63;;;6.07;100.00
32492;BME280;20605;49.742;18.802;2023-02-12T08:43:59;99563.29;;;6.01;100.00
32492;BME280;20605;49.742;18.802;2023-02-12T08:46:27;99564.56;;;6.05;100.00
32492;BME280;20605;49.742;18.802;2023-02-12T08:48:57;99568.41;;;6.09;100.00
32492;BME280;20605;49.742;18.802;2023-02-12T08:51:26;99570.77;;;6.05;100.00
32492;BME280;20605;49.742;18.802;2023-02-12T08:53:54;99569.76;;;6.07;100.00
32492;BME280;20605;49.742;18.802;2023-02-12T08:56:21;99570.96;;;6.18;100.00
32492;BME280;20605;49.742;18.802;2023-02-12T08:58:47;99571.48;;;6.32;100.00
32492;BME280;20605;49.742;18.802;2023-02-12T09:01:16;99574.10;;;6.47;100.00
32492;BME280;20605;49.742;18.802;2023-02-12T09:03:43;99578.70;;;6.58;100.00
32492;BME280;20605;49.742;18.802;2023-02-12T09:06:09;99585.79;;;6.58;100.00
32492;BME280;20605;49.742;18.802;2023-02-12T09:08:36;99584.52;;;6.54;100.00
32492;BME280;20605;49.742;18.802;2023-02-12T09:11:12;99586.70;;;6.47;100.00
32492;BME280;20605;49.742;18.802;2023-02-12T09:13:58;99586.56;;;6.79;100.00
32492;BME280;20605;49.742;18.802;2023-02-12T09:16:26;99587.60;;;6.79;100.00
32492;BME280;20605;49.742;18.802;2023-02-12T09:18:52;99590.64;;;6.60;100.00
32492;BME280;20605;49.742;18.802;2023-02-12T09:21:18;99591.48;;;6.43;100.00
32492;BME280;20605;49.742;18.802;2023-02-12T09:23:44;99597.76;;;6.23;100.00
32492;BME280;20605;49.742;18.802;2023-02-12T09:26:12;99599.27;;;6.08;100.00
32492;BME280;20605;49.742;18.802;2023-02-12T09:28:40;99605.58;;;5.93;100.00
32492;BME280;20605;49.742;18.802;2023-02-12T09:31:15;99610.15;;;5.78;100.00
32492;BME280;20605;49.742;18.802;2023-02-12T09:33:42;99617.29;;;5.73;100.00
32492;BME280;20605;49.742;18.802;2023-02-12T09:36:13;99615.77;;;5.74;100.00
32492;BME280;20605;49.742;18.802;2023-02-12T09:38:40;99622.75;;;5.80;100.00
32492;BME280;20605;49.742;18.802;2023-02-12T09:44:02;99632.66;;;5.94;100.00
32492;BME280;20605;49.742;18.802;2023-02-12T09:49:13;99634.64;;;7.17;100.00
32492;BME280;20605;49.742;18.802;2023-02-12T09:51:48;99633.49;;;8.43;100.00
32492;BME280;20605;49.742;18.802;2023-02-12T09:54:21;99636.44;;;9.03;100.00
32492;BME280;20605;49.742;18.802;2023-02-12T09:56:54;99637.94;;;8.89;100.00
32492;BME280;20605;49.742;18.802;2023-02-12T09:59:34;99636.58;;;8.60;100.00
32492;BME280;20605;49.742;18.802;2023-02-12T10:02:00;99643.23;;;8.42;100.00
32492;BME280;20605;49.742;18.802;2023-02-12T10:04:27;99645.16;;;8.27;100.00
32492;BME280;20605;49.742;18.802;2023-02-12T10:12:29;99667.38;;;7.52;100.00
32492;BME280;20605;49.742;18.802;2023-02-12T10:26:46;99670.25;;;6.88;100.00
32492;BME280;20605;49.742;18.802;2023-02-12T10:29:17;99673.54;;;6.75;100.00
32492;BME280;20605;49.742;18.802;2023-02-12T10:31:49;99671.73;;;6.70;100.00
32492;BME280;20605;49.742;18.802;2023-02-12T10:34:20;99670.72;;;6.71;100.00
32492;BME280;20605;49.742;18.802;2023-02-12T10:36:48;99669.70;;;6.72;100.00
32492;BME280;20605;49.742;18.802;2023-02-12T10:39:26;99675.48;;;6.78;100.00
32492;BME280;20605;49.742;18.802;2023-02-12T10:42:57;99677.30;;;6.99;100.00
32492;BME280;20605;49.742;18.802;2023-02-12T10:44:57;99674.29;;;7.07;100.00
32492;BME280;20605;49.742;18.802;2023-02-12T10:47:23;99674.91;;;7.15;100.00
32492;BME280;20605;49.742;18.802;2023-02-12T10:50:01;99675.23;;;7.28;100.00
32492;BME280;20605;49.742;18.802;2023-02-12T10:55:26;99675.27;;;7.31;100.00
32492;BME280;20605;49.742;18.802;2023-02-12T10:57:53;99681.20;;;7.22;100.00
32492;BME280;20605;49.742;18.802;2023-02-12T11:00:31;99679.02;;;7.28;100.00
32492;BME280;20605;49.742;18.802;2023-02-12T11:03:08;99677.88;;;7.33;100.00
32492;BME280;20605;49.742;18.802;2023-02-12T11:05:43;99675.93;;;7.29;100.00
32492;BME280;20605;49.742;18.802;2023-02-12T11:08:32;99677.86;;;7.31;100.00
32492;BME280;20605;49.742;18.802;2023-02-12T11:11:05;99684.60;;;7.47;100.00
32492;BME280;20605;49.742;18.802;2023-02-12T11:13:32;99686.16;;;7.47;100.00
32492;BME280;20605;49.742;18.802;2023-02-12T11:15:58;99679.65;;;7.36;100.00
32492;BME280;20605;49.742;18.802;2023-02-12T11:18:28;99678.04;;;7.32;100.00
32492;BME280;20605;49.742;18.802;2023-02-12T11:21:09;99684.41;;;7.30;100.00
32492;BME280;20605;49.742;18.802;2023-02-12T11:23:39;99684.02;;;7.41;100.00
32492;BME280;20605;49.742;18.802;2023-02-12T11:26:27;99685.29;;;7.47;100.00
32492;BME280;20605;49.742;18.802;2023-02-12T11:29:00;99685.41;;;7.41;100.00
32492;BME280;20605;49.742;18.802;2023-02-12T11:31:28;99686.59;;;7.39;100.00
32492;BME280;20605;49.742;18.802;2023-02-12T11:34:17;99684.29;;;7.34;100.00
32492;BME280;20605;49.742;18.802;2023-02-12T11:36:49;99684.36;;;7.26;100.00
32492;BME280;20605;49.742;18.802;2023-02-12T11:41:53;99691.08;;;7.10;100.00
32492;BME280;20605;49.742;18.802;2023-02-12T11:44:24;99693.05;;;7.02;100.00
32492;BME280;20605;49.742;18.802;2023-02-12T11:46:57;99689.61;;;6.77;100.00
32492;BME280;20605;49.742;18.802;2023-02-12T11:49:30;99692.55;;;6.52;100.00
32492;BME280;20605;49.742;18.802;2023-02-12T11:52:00;99690.27;;;6.37;100.00
32492;BME280;20605;49.742;18.802;2023-02-12T11:54:29;99695.50;;;6.30;100.00
32492;BME280;20605;49.742;18.802;2023-02-12T11:56:57;99697.58;;;6.30;100.00
32492;BME280;20605;49.742;18.802;2023-02-12T11:59:35;99695.84;;;6.29;100.00
32492;BME280;20605;49.742;18.802;2023-02-12T12:04:39;99689.14;;;6.93;100.00
32492;BME280;20605;49.742;18.802;2023-02-12T12:07:18;99688.13;;;7.08;100.00
32492;BME280;20605;49.742;18.802;2023-02-12T12:09:57;99690.94;;;7.12;100.00
32492;BME280;20605;49.742;18.802;2023-02-12T12:12:35;99693.27;;;7.05;100.00
32492;BME280;20605;49.742;18.802;2023-02-12T12:17:59;99687.34;;;7.01;100.00
32492;BME280;20605;49.742;18.802;2023-02-12T12:20:50;99684.52;;;6.84;100.00
32492;BME280;20605;49.742;18.802;2023-02-12T12:23:18;99680.39;;;6.71;100.00
32492;BME280;20605;49.742;18.802;2023-02-12T12:25:50;99681.17;;;6.79;100.00
32492;BME280;20605;49.742;18.802;2023-02-12T12:31:16;99676.98;;;7.30;100.00
32492;BME280;20605;49.742;18.802;2023-02-12T12:54:02;99671.86;;;6.93;100.00
32492;BME280;20605;49.742;18.802;2023-02-12T12:56:57;99670.11;;;7.18;100.00
32492;BME280;20605;49.742;18.802;2023-02-12T13:10:33;99676.80;;;7.61;100.00
32492;BME280;20605;49.742;18.802;2023-02-12T13:15:50;99686.02;;;7.35;100.00
32492;BME280;20605;49.742;18.802;2023-02-12T13:18:31;99686.59;;;7.10;100.00
32492;BME280;20605;49.742;18.802;2023-02-12T13:26:32;99690.35;;;6.68;100.00
32492;BME280;20605;49.742;18.802;2023-02-12T13:29:15;99689.48;;;6.56;100.00
32492;BME280;20605;49.742;18.802;2023-02-12T13:31:48;99694.56;;;6.36;100.00
32492;BME280;20605;49.742;18.802;2023-02-12T13:34:17;99696.21;;;6.20;100.00
32492;BME280;20605;49.742;18.802;2023-02-12T13:36:47;99699.36;;;6.12;100.00
32492;BME280;20605;49.742;18.802;2023-02-12T13:39:34;99699.39;;;6.04;100.00
32492;BME280;20605;49.742;18.802;2023-02-12T13:44:58;99706.83;;;5.94;100.00
32492;BME280;20605;49.742;18.802;2023-02-12T13:50:43;99705.90;;;5.73;100.00
32492;BME280;20605;49.742;18.802;2023-02-12T14:01:50;99697.77;;;5.54;100.00
32492;BME280;20605;49.742;18.802;2023-02-12T14:03:51;99699.71;;;5.56;100.00
32492;BME280;20605;49.742;18.802;2023-02-12T14:06:19;99697.58;;;5.52;100.00
32492;BME280;20605;49.742;18.802;2023-02-12T14:08:50;99696.85;;;5.50;100.00
32492;BME280;20605;49.742;18.802;2023-02-12T14:11:20;99699.36;;;5.55;100.00
32492;BME280;20605;49.742;18.802;2023-02-12T14:13:55;99695.97;;;5.58;100.00
32492;BME280;20605;49.742;18.802;2023-02-12T14:21:59;99699.85;;;5.45;100.00
32492;BME280;20605;49.742;18.802;2023-02-12T14:27:21;99695.71;;;5.27;100.00
32492;BME280;20605;49.742;18.802;2023-02-12T14:38:02;99704.35;;;5.01;100.00
32492;BME280;20605;49.742;18.802;2023-02-12T14:42:56;99707.56;;;4.91;100.00
32492;BME280;20605;49.742;18.802;2023-02-12T14:45:35;99708.56;;;4.81;100.00
32492;BME280;20605;49.742;18.802;2023-02-12T14:48:03;99708.53;;;4.72;100.00
32492;BME280;20605;49.742;18.802;2023-02-12T14:50:39;99712.13;;;4.63;100.00
32492;BME280;20605;49.742;18.802;2023-02-12T14:53:25;99718.15;;;4.56;100.00
32492;BME280;20605;49.742;18.802;2023-02-12T14:55:53;99714.63;;;4.53;100.00
32492;BME280;20605;49.742;18.802;2023-02-12T14:58:21;99712.30;;;4.49;100.00
32492;BME280;20605;49.742;18.802;2023-02-12T15:00:52;99712.23;;;4.46;100.00
32492;BME280;20605;49.742;18.802;2023-02-12T15:03:31;99714.08;;;4.44;100.00
32492;BME280;20605;49.742;18.802;2023-02-12T15:06:20;99715.88;;;4.40;100.00
32492;BME280;20605;49.742;18.802;2023-02-12T15:08:54;99712.27;;;4.33;100.00
32492;BME280;20605;49.742;18.802;2023-02-12T15:14:25;99721.23;;;4.26;100.00
32492;BME280;20605;49.742;18.802;2023-02-12T15:17:01;99722.43;;;4.33;100.00
32492;BME280;20605;49.742;18.802;2023-02-12T15:24:46;99717.54;;;4.60;100.00
32492;BME280;20605;49.742;18.802;2023-02-12T15:27:13;99723.95;;;4.62;100.00
32492;BME280;20605;49.742;18.802;2023-02-12T15:29:42;99724.53;;;4.64;100.00
32492;BME280;20605;49.742;18.802;2023-02-12T15:32:17;99722.70;;;4.67;100.00
32492;BME280;20605;49.742;18.802;2023-02-12T15:34:47;99720.11;;;4.67;100.00